This is the latest recevied weather packets stored in our database for station/object N9XRG. If no packets are shown the sender has not sent any weather packets the latest 10 day(s).
| Time | Temp. | Humidity | Pressure | Rain* | Wind** | Luminosity | Snow |
|---|---|---|---|---|---|---|---|
| 1777555733 | 10° C | 66% | 1016.3 hPa | 0 mm | - | 419 W/m² | - |
| 1777555430 | 10° C | 64% | 1016.1 hPa | 0 mm | - | 400 W/m² | - |
| 1777555126 | 10° C | 63% | 1016.2 hPa | 0 mm | - | 378 W/m² | - |
| 1777554824 | 9.44° C | 65% | 1016.2 hPa | 0 mm | - | 391 W/m² | - |
| 1777554521 | 10° C | 63% | 1016.2 hPa | 0 mm | - | 375 W/m² | - |
| 1777554218 | 10° C | 66% | 1016.2 hPa | 0 mm | - | 323 W/m² | - |
| 1777553914 | 8.89° C | 66% | 1016.2 hPa | 0 mm | - | 302 W/m² | - |
| 1777553611 | 8.33° C | 70% | 1016.4 hPa | 0 mm | - | 287 W/m² | - |
| 1777553307 | 8.89° C | 70% | 1016.5 hPa | 0 mm | - | 338 W/m² | - |
| 1777553003 | 7.78° C | 73% | 1016.4 hPa | 0 mm | - | 259 W/m² | - |
| 1777552703 | 6.67° C | 78% | 1016.5 hPa | 0 mm | - | 235 W/m² | - |
| 1777552400 | 6.11° C | 78% | 1016.5 hPa | 0 mm | - | 142 W/m² | - |
| 1777552096 | 6.11° C | 80% | 1016.7 hPa | 0 mm | - | 86 W/m² | - |
| 1777551794 | 5.56° C | 81% | 1016.4 hPa | 0 mm | - | 78 W/m² | - |
| 1777551492 | 5.56° C | 81% | 1016.4 hPa | 0 mm | - | 73 W/m² | - |
| 1777551188 | 5.56° C | 81% | 1016.4 hPa | 0 mm | - | 83 W/m² | - |
| 1777550885 | 5.56° C | 83% | 1016.4 hPa | 0 mm | - | 81 W/m² | - |
| 1777550581 | 5.56° C | 83% | 1016.3 hPa | 0 mm | - | 62 W/m² | - |
| 1777550276 | 5° C | 84% | 1016.2 hPa | 0 mm | - | 56 W/m² | - |
| 1777549974 | 5° C | 84% | 1016.3 hPa | 0 mm | - | 53 W/m² | - |
| 1777549670 | 5° C | 83% | 1016.1 hPa | 0 mm | - | 43 W/m² | - |
| 1777549365 | 5.56° C | 83% | 1016.1 hPa | 0 mm | - | 48 W/m² | - |
| 1777549063 | 5° C | 84% | 1016.3 hPa | 0 mm | - | 52 W/m² | - |
| 1777548759 | 5° C | 85% | 1016.1 hPa | 0 mm | - | 36 W/m² | - |
| 1777548457 | 4.44° C | 88% | 1016 hPa | 0 mm | - | 39 W/m² | - |
* Rain latest hour (hover to see other rain measurements)
** Current wind speed in m/s (hover to see current wind gust speed)